createdAt,value
2023-04-13T00:01:28.230Z,4.80
2023-04-13T00:03:58.624Z,5.70
2023-04-13T00:06:29.299Z,5.20
2023-04-13T00:08:58.980Z,6.00
2023-04-13T00:11:28.487Z,4.70
2023-04-13T00:13:59.251Z,4.00
2023-04-13T00:16:29.879Z,4.00
2023-04-13T00:18:58.302Z,4.40
2023-04-13T00:21:28.181Z,4.50
2023-04-13T00:23:58.941Z,4.30
2023-04-13T00:26:27.466Z,4.60
2023-04-13T00:28:56.061Z,5.00
2023-04-13T00:31:26.973Z,4.80
2023-04-13T00:33:55.411Z,5.00
2023-04-13T00:36:25.006Z,3.20
2023-04-13T00:38:54.621Z,3.70
2023-04-13T00:41:26.319Z,3.60
2023-04-13T00:43:54.639Z,4.00
2023-04-13T00:46:24.089Z,4.50
2023-04-13T00:48:53.087Z,4.40
2023-04-13T00:51:22.136Z,4.30
2023-04-13T00:53:51.568Z,4.60
2023-04-13T00:56:23.211Z,4.10
2023-04-13T00:58:52.091Z,4.60
2023-04-13T01:01:20.334Z,3.80
2023-04-13T01:03:49.699Z,3.70
2023-04-13T01:06:42.882Z,3.70
2023-04-13T01:09:26.798Z,4.20
2023-04-13T01:12:02.910Z,6.10
2023-04-13T01:14:49.288Z,5.70
2023-04-13T01:17:23.786Z,6.10
2023-04-13T01:20:08.428Z,4.30
2023-04-13T01:22:42.850Z,25.50
2023-04-13T01:25:15.022Z,37.30
2023-04-13T01:27:51.733Z,41.80
2023-04-13T01:30:22.372Z,15.70
2023-04-13T01:32:53.402Z,15.90
2023-04-13T01:35:23.642Z,6.40
2023-04-13T01:37:53.342Z,4.10
2023-04-13T01:40:27.423Z,4.20
2023-04-13T01:42:58.181Z,3.60
2023-04-13T01:45:47.132Z,3.80
2023-04-13T01:48:43.575Z,3.40
2023-04-13T01:51:25.640Z,3.90
2023-04-13T01:54:12.000Z,4.60
2023-04-13T01:56:42.420Z,3.00
2023-04-13T01:59:11.506Z,3.70
2023-04-13T02:01:41.371Z,3.50
2023-04-13T02:04:10.434Z,3.50
2023-04-13T02:06:42.486Z,3.60
2023-04-13T02:09:12.115Z,4.60
2023-04-13T02:11:40.354Z,3.90
2023-04-13T02:14:09.863Z,3.50
2023-04-13T02:16:39.200Z,3.70
2023-04-13T02:19:07.756Z,4.20
2023-04-13T02:21:36.480Z,4.10
2023-04-13T02:24:05.954Z,3.50
2023-04-13T02:26:34.272Z,3.50
2023-04-13T02:29:02.613Z,4.30
2023-04-13T02:31:32.148Z,4.20
2023-04-13T02:34:01.254Z,9.00
2023-04-13T02:36:30.827Z,17.60
2023-04-13T02:39:02.767Z,20.90
2023-04-13T02:41:34.395Z,15.40
2023-04-13T02:44:03.636Z,24.80
2023-04-13T02:46:39.254Z,9.40
2023-04-13T02:49:16.986Z,8.10
2023-04-13T02:51:55.101Z,8.80
2023-04-13T02:54:30.786Z,13.60
2023-04-13T02:57:01.079Z,7.50
2023-04-13T02:59:29.982Z,4.90
2023-04-13T03:02:00.224Z,3.90
2023-04-13T03:04:29.424Z,4.30
2023-04-13T03:06:58.799Z,3.60
2023-04-13T03:09:29.266Z,4.80
2023-04-13T03:11:57.909Z,3.60
2023-04-13T03:14:30.264Z,4.80
2023-04-13T03:17:04.842Z,4.40
2023-04-13T03:19:38.620Z,5.20
2023-04-13T03:22:07.099Z,3.80
2023-04-13T03:24:37.873Z,3.90
2023-04-13T03:27:08.784Z,3.10
2023-04-13T03:29:41.868Z,3.50
2023-04-13T03:32:11.890Z,4.00
2023-04-13T03:34:44.400Z,5.20
2023-04-13T03:37:14.391Z,8.70
2023-04-13T03:39:42.815Z,10.50
2023-04-13T03:42:13.606Z,23.60
2023-04-13T03:44:46.695Z,11.90
2023-04-13T03:47:15.935Z,9.40
2023-04-13T03:49:44.171Z,6.50
2023-04-13T03:52:12.759Z,6.50
2023-04-13T03:54:42.857Z,5.70
2023-04-13T03:57:11.368Z,6.10
2023-04-13T03:59:39.744Z,6.00
2023-04-13T04:02:09.468Z,6.50
2023-04-13T04:04:41.139Z,8.50
2023-04-13T04:07:09.526Z,7.60
2023-04-13T04:09:39.106Z,6.60
2023-04-13T04:12:08.207Z,6.40
2023-04-13T04:14:40.832Z,8.40
2023-04-13T04:17:15.621Z,7.70
2023-04-13T04:19:44.610Z,9.00
2023-04-13T04:22:14.249Z,9.20
2023-04-13T04:24:43.010Z,7.90
2023-04-13T04:27:14.541Z,10.30
2023-04-13T04:29:49.234Z,14.80
2023-04-13T04:32:24.299Z,99.30
2023-04-13T04:34:53.532Z,106.20
2023-04-13T04:37:23.288Z,47.60
2023-04-13T04:40:13.171Z,53.10
2023-04-13T04:42:42.874Z,13.60
2023-04-13T04:45:18.443Z,7.80
2023-04-13T04:47:49.178Z,10.30
2023-04-13T04:50:24.465Z,14.60
2023-04-13T04:52:57.288Z,25.10
2023-04-13T04:55:26.142Z,23.30
2023-04-13T04:57:54.624Z,14.00
2023-04-13T05:00:26.529Z,6.90
2023-04-13T05:03:15.171Z,6.30
2023-04-13T05:05:47.628Z,8.80
2023-04-13T05:08:21.120Z,7.60
2023-04-13T05:10:50.344Z,6.10
2023-04-13T05:13:19.654Z,10.40
2023-04-13T05:15:56.290Z,11.00
2023-04-13T05:18:26.011Z,15.50
2023-04-13T05:20:56.583Z,16.50
2023-04-13T05:23:25.339Z,8.80
2023-04-13T05:25:58.733Z,7.00
2023-04-13T05:28:27.664Z,8.30
2023-04-13T05:31:03.635Z,6.70
2023-04-13T05:33:32.576Z,7.20
2023-04-13T05:36:01.513Z,5.90
2023-04-13T05:38:30.056Z,5.30
2023-04-13T05:40:58.873Z,9.80
2023-04-13T05:43:27.369Z,6.70
2023-04-13T05:45:56.214Z,8.50
2023-04-13T05:48:24.707Z,13.60
2023-04-13T05:50:58.683Z,10.40
2023-04-13T05:53:29.052Z,7.70
2023-04-13T05:55:58.751Z,4.40
2023-04-13T05:58:27.324Z,4.70
2023-04-13T06:01:05.656Z,6.10
2023-04-13T06:03:34.945Z,7.50
2023-04-13T06:06:04.930Z,10.90
2023-04-13T06:08:33.256Z,8.70
2023-04-13T06:11:01.923Z,8.40
2023-04-13T06:13:31.782Z,9.90
2023-04-13T06:16:00.228Z,9.50
2023-04-13T06:18:29.364Z,7.30
2023-04-13T06:20:59.449Z,5.80
2023-04-13T06:23:28.034Z,9.40
2023-04-13T06:25:59.028Z,8.20
2023-04-13T06:28:49.970Z,5.70
2023-04-13T06:31:19.373Z,6.70
2023-04-13T06:33:49.824Z,14.40
2023-04-13T06:36:22.683Z,11.00
2023-04-13T06:38:52.343Z,7.20
2023-04-13T06:41:21.213Z,5.40
2023-04-13T06:43:49.560Z,4.30
2023-04-13T06:46:29.827Z,6.60
2023-04-13T06:49:02.777Z,4.60
2023-04-13T06:51:32.355Z,4.80
2023-04-13T06:54:01.797Z,4.90
2023-04-13T06:56:30.146Z,5.10
2023-04-13T06:59:02.707Z,6.40
2023-04-13T07:01:33.090Z,5.20
2023-04-13T07:04:02.982Z,4.80
2023-04-13T07:06:33.398Z,7.80
2023-04-13T07:09:02.303Z,7.80
2023-04-13T07:11:31.488Z,4.40
2023-04-13T07:13:59.963Z,4.50
2023-04-13T07:16:28.462Z,4.30
2023-04-13T07:18:57.182Z,4.70
2023-04-13T07:21:27.498Z,6.80
2023-04-13T07:24:02.298Z,5.10
2023-04-13T07:26:31.187Z,5.50
2023-04-13T07:29:00.148Z,5.30
2023-04-13T07:31:31.588Z,5.50
2023-04-13T07:34:00.477Z,5.90
2023-04-13T07:36:33.539Z,7.80
2023-04-13T07:39:09.104Z,5.30
2023-04-13T07:41:39.085Z,4.70
2023-04-13T07:44:08.290Z,6.70
2023-04-13T07:46:38.766Z,6.40
2023-04-13T07:49:07.623Z,10.60
2023-04-13T07:51:36.375Z,7.40
2023-04-13T07:54:04.878Z,7.50
2023-04-13T07:56:33.866Z,5.00
2023-04-13T07:59:02.314Z,6.40
2023-04-13T08:01:31.658Z,5.70
2023-04-13T08:04:02.602Z,6.30
2023-04-13T08:06:32.438Z,6.10
2023-04-13T08:09:02.220Z,5.50
2023-04-13T08:11:32.037Z,6.10
2023-04-13T08:14:06.197Z,5.90
2023-04-13T08:16:34.976Z,6.60
2023-04-13T08:19:05.775Z,5.80
2023-04-13T08:21:38.748Z,4.50
2023-04-13T08:24:07.665Z,6.00
2023-04-13T08:26:35.940Z,5.90
2023-04-13T08:29:04.251Z,5.00
2023-04-13T08:31:32.825Z,5.60
2023-04-13T08:34:04.795Z,5.00
2023-04-13T08:36:33.680Z,3.90
2023-04-13T08:39:10.033Z,4.60
2023-04-13T08:41:44.455Z,5.30
2023-04-13T08:44:14.918Z,5.10
2023-04-13T08:46:47.122Z,4.80
2023-04-13T08:49:18.503Z,6.90
2023-04-13T08:52:09.109Z,4.80
2023-04-13T08:54:38.247Z,5.00
2023-04-13T08:57:12.330Z,4.40
2023-04-13T08:59:43.101Z,4.80
2023-04-13T09:02:12.333Z,4.80
2023-04-13T09:04:52.652Z,4.20
2023-04-13T09:07:26.764Z,4.70
2023-04-13T09:09:59.840Z,5.40
2023-04-13T09:12:29.874Z,4.80
2023-04-13T09:14:59.376Z,4.30
2023-04-13T09:17:32.534Z,4.30
2023-04-13T09:20:22.814Z,4.70
2023-04-13T09:22:52.118Z,4.20
2023-04-13T09:25:27.761Z,5.10
2023-04-13T09:27:57.529Z,4.40
2023-04-13T09:30:27.739Z,5.50
2023-04-13T09:33:10.768Z,16.90
2023-04-13T09:35:40.053Z,4.20
2023-04-13T09:38:09.178Z,4.10
2023-04-13T09:40:48.290Z,4.80
2023-04-13T09:43:17.306Z,4.10
2023-04-13T09:45:46.202Z,3.70
2023-04-13T09:48:22.726Z,4.20
2023-04-13T09:51:02.255Z,3.90
2023-04-13T09:53:43.705Z,3.70
2023-04-13T09:56:12.270Z,3.50
2023-04-13T09:58:45.910Z,4.20
2023-04-13T10:03:45.981Z,3.50
2023-04-13T10:06:14.781Z,3.50
2023-04-13T10:08:43.320Z,3.50
2023-04-13T10:11:14.595Z,4.20
2023-04-13T10:14:09.169Z,4.20
2023-04-13T10:16:40.308Z,4.10
2023-04-13T10:19:18.489Z,3.70
2023-04-13T10:21:51.834Z,3.80
2023-04-13T10:24:21.690Z,3.70
2023-04-13T10:26:55.389Z,6.50
2023-04-13T10:32:04.172Z,3.50
2023-04-13T10:34:34.968Z,9.50
2023-04-13T10:37:07.550Z,4.00
2023-04-13T10:39:37.779Z,3.10
2023-04-13T10:42:12.893Z,3.50
2023-04-13T10:44:44.981Z,3.50
2023-04-13T10:47:15.549Z,3.10
2023-04-13T10:49:46.818Z,3.30
2023-04-13T10:52:16.076Z,3.10
2023-04-13T10:54:45.392Z,3.40
2023-04-13T10:57:13.847Z,2.70
2023-04-13T10:59:56.327Z,3.10
2023-04-13T11:02:32.516Z,2.80
2023-04-13T11:05:01.591Z,3.20
2023-04-13T11:07:30.330Z,3.30
2023-04-13T11:12:30.436Z,3.80
2023-04-13T11:14:59.651Z,4.10
2023-04-13T11:17:28.527Z,3.80
2023-04-13T11:19:57.872Z,3.20
2023-04-13T11:22:29.114Z,3.40
2023-04-13T11:25:16.539Z,3.40
2023-04-13T11:27:44.906Z,3.10
2023-04-13T11:30:14.510Z,3.60
2023-04-13T11:32:43.588Z,3.00
2023-04-13T11:35:15.134Z,2.50
2023-04-13T11:37:49.727Z,3.50
2023-04-13T11:40:26.348Z,4.20
2023-04-13T11:42:58.991Z,3.90
2023-04-13T11:45:30.707Z,3.20
2023-04-13T11:48:00.125Z,2.80
2023-04-13T11:50:29.508Z,2.70
2023-04-13T11:52:58.706Z,2.90
2023-04-13T11:55:27.371Z,3.90
2023-04-13T11:57:55.981Z,2.80
2023-04-13T12:00:26.504Z,2.50
2023-04-13T12:05:32.880Z,3.00
2023-04-13T12:08:04.600Z,3.40
2023-04-13T12:18:28.390Z,3.80
2023-04-13T12:21:03.100Z,3.50
2023-04-13T12:23:31.475Z,3.60
2023-04-13T12:26:25.966Z,3.40
2023-04-13T12:28:59.249Z,4.30
2023-04-13T12:31:36.704Z,2.90
2023-04-13T12:34:08.510Z,2.70
2023-04-13T12:36:37.235Z,2.70
2023-04-13T12:39:06.980Z,3.30
2023-04-13T12:41:35.428Z,3.30
2023-04-13T12:44:03.693Z,2.80
2023-04-13T12:46:32.692Z,3.60
2023-04-13T12:49:01.805Z,3.70
2023-04-13T12:51:31.675Z,3.60
2023-04-13T12:53:59.896Z,3.30
2023-04-13T12:56:28.140Z,3.30
2023-04-13T12:58:56.467Z,3.60
2023-04-13T13:01:24.940Z,4.00
2023-04-13T13:03:53.546Z,3.90
2023-04-13T13:06:21.906Z,3.70
2023-04-13T13:08:51.618Z,3.90
2023-04-13T13:11:19.919Z,4.20
2023-04-13T13:13:48.505Z,3.40
2023-04-13T13:16:16.987Z,2.90
2023-04-13T13:18:50.848Z,4.00
2023-04-13T13:21:20.268Z,3.40
2023-04-13T13:23:48.579Z,3.30
2023-04-13T13:28:48.379Z,2.80
2023-04-13T13:31:16.785Z,3.50
2023-04-13T13:33:45.349Z,2.90
2023-04-13T13:36:14.853Z,2.90
2023-04-13T13:38:43.958Z,2.90
2023-04-13T13:41:12.245Z,2.60
2023-04-13T13:43:40.531Z,3.10
2023-04-13T13:46:09.091Z,3.40
2023-04-13T13:48:38.495Z,3.50
2023-04-13T13:51:28.500Z,2.90
2023-04-13T13:53:57.717Z,3.50
2023-04-13T13:56:26.283Z,2.80
2023-04-13T13:58:54.961Z,2.80
2023-04-13T14:01:23.150Z,3.00
2023-04-13T14:03:52.222Z,3.50
2023-04-13T14:06:20.716Z,6.30
2023-04-13T14:08:48.890Z,3.50
2023-04-13T14:11:17.167Z,3.40
2023-04-13T14:13:45.679Z,3.60
2023-04-13T14:16:13.757Z,3.30
2023-04-13T14:18:42.205Z,4.50
2023-04-13T14:21:11.304Z,3.80
2023-04-13T14:23:40.615Z,3.70
2023-04-13T14:26:08.813Z,3.40
2023-04-13T14:28:37.073Z,3.30
2023-04-13T14:31:05.847Z,3.30
2023-04-13T14:33:34.363Z,3.80
2023-04-13T14:36:03.027Z,4.50
2023-04-13T14:38:31.321Z,3.60
2023-04-13T14:40:59.679Z,4.00
2023-04-13T14:43:28.058Z,5.10
2023-04-13T14:45:56.750Z,3.90
2023-04-13T14:48:25.444Z,3.40
2023-04-13T14:50:53.927Z,4.30
2023-04-13T14:53:22.203Z,6.10
2023-04-13T14:55:50.542Z,5.30
2023-04-13T14:58:19.072Z,4.40
2023-04-13T15:00:47.341Z,6.20
2023-04-13T15:03:16.157Z,4.80
2023-04-13T15:05:50.099Z,14.40
2023-04-13T15:08:19.955Z,15.10
2023-04-13T15:10:48.875Z,6.40
2023-04-13T15:13:17.129Z,28.70
2023-04-13T15:15:48.220Z,14.30
2023-04-13T15:18:16.682Z,14.20
2023-04-13T15:20:45.026Z,6.50
2023-04-13T15:23:13.333Z,9.80
2023-04-13T15:25:42.206Z,9.90
2023-04-13T15:28:10.739Z,11.00
2023-04-13T15:30:40.346Z,9.00
2023-04-13T15:33:08.848Z,9.50
2023-04-13T15:35:37.306Z,5.40
2023-04-13T15:38:05.847Z,10.50
2023-04-13T15:40:34.184Z,11.00
2023-04-13T15:43:04.076Z,12.10
2023-04-13T15:45:32.818Z,7.00
2023-04-13T15:48:02.015Z,19.80
2023-04-13T15:50:30.524Z,10.50
2023-04-13T15:52:58.734Z,8.90
2023-04-13T15:55:27.502Z,8.20
2023-04-13T15:57:57.418Z,7.70
2023-04-13T16:00:26.499Z,8.50
2023-04-13T16:02:56.343Z,10.70
2023-04-13T16:05:25.053Z,8.80
2023-04-13T16:07:53.290Z,10.30
2023-04-13T16:10:21.774Z,10.20
2023-04-13T16:12:50.215Z,7.20
2023-04-13T16:15:19.605Z,7.00
2023-04-13T16:17:48.593Z,7.40
2023-04-13T16:20:21.359Z,9.70
2023-04-13T16:22:51.980Z,8.90
2023-04-13T16:25:20.616Z,9.90
2023-04-13T16:27:48.860Z,12.90
2023-04-13T16:30:21.040Z,13.30
2023-04-13T16:32:50.777Z,11.30
2023-04-13T16:35:19.398Z,13.20
2023-04-13T16:37:47.771Z,20.30
2023-04-13T16:40:16.906Z,20.00
2023-04-13T16:42:46.217Z,20.80
2023-04-13T16:45:15.282Z,17.20
2023-04-13T16:47:44.199Z,14.00
2023-04-13T16:50:13.518Z,18.80
2023-04-13T16:52:42.411Z,28.10
2023-04-13T16:55:15.074Z,15.10
2023-04-13T16:57:43.622Z,14.70
2023-04-13T17:00:12.759Z,17.80
2023-04-13T17:02:42.782Z,24.50
2023-04-13T17:05:12.830Z,24.50
2023-04-13T17:07:43.747Z,24.70
2023-04-13T17:10:13.726Z,23.40
2023-04-13T17:12:42.099Z,32.90
2023-04-13T17:15:11.101Z,22.00
2023-04-13T17:17:39.339Z,17.80
2023-04-13T17:20:09.554Z,24.50
2023-04-13T17:22:38.188Z,24.20
2023-04-13T17:25:07.251Z,36.10
2023-04-13T17:27:35.603Z,27.90
2023-04-13T17:30:04.161Z,17.60
2023-04-13T17:32:32.947Z,14.70
2023-04-13T17:35:01.204Z,15.50
2023-04-13T17:37:29.893Z,19.60
2023-04-13T17:39:58.194Z,255.60
2023-04-13T17:42:26.859Z,53.70
2023-04-13T17:44:55.302Z,66.90
2023-04-13T17:47:26.456Z,45.00
2023-04-13T17:49:54.973Z,40.60
2023-04-13T17:52:23.276Z,33.40
2023-04-13T17:54:51.737Z,40.80
2023-04-13T17:57:19.777Z,47.70
2023-04-13T17:59:47.898Z,40.90
2023-04-13T18:02:16.245Z,43.70
2023-04-13T18:04:44.664Z,28.10
2023-04-13T18:07:13.126Z,26.60
2023-04-13T18:09:41.623Z,28.60
2023-04-13T18:12:09.812Z,32.20
2023-04-13T18:14:38.064Z,26.00
2023-04-13T18:17:06.894Z,22.50
2023-04-13T18:19:35.457Z,26.50
2023-04-13T18:22:03.997Z,27.50
2023-04-13T18:24:32.199Z,26.20
2023-04-13T18:27:00.384Z,26.40
2023-04-13T18:29:28.604Z,24.40
2023-04-13T18:31:57.169Z,26.80
2023-04-13T18:34:25.658Z,32.00
2023-04-13T18:36:54.005Z,35.80
2023-04-13T18:39:22.796Z,35.50
2023-04-13T18:41:51.299Z,41.70
2023-04-13T18:44:19.654Z,37.40
2023-04-13T18:46:47.850Z,43.20
2023-04-13T18:49:16.935Z,35.20
2023-04-13T18:51:45.206Z,32.80
2023-04-13T18:54:13.397Z,32.90
2023-04-13T18:56:41.763Z,35.00
2023-04-13T18:59:10.148Z,52.60
2023-04-13T19:01:38.598Z,48.00
2023-04-13T19:04:07.390Z,54.30
2023-04-13T19:06:37.145Z,64.10
2023-04-13T19:09:05.515Z,42.60
2023-04-13T19:11:54.188Z,33.20
2023-04-13T19:14:22.440Z,29.40
2023-04-13T19:16:52.795Z,31.90
2023-04-13T19:19:22.275Z,32.60
2023-04-13T19:21:54.352Z,41.60
2023-04-13T19:24:23.357Z,40.80
2023-04-13T19:26:51.722Z,40.90
2023-04-13T19:29:21.271Z,37.60
2023-04-13T19:31:52.553Z,54.50
2023-04-13T19:34:20.759Z,47.30
2023-04-13T19:36:49.159Z,40.30
2023-04-13T19:39:17.627Z,39.70
2023-04-13T19:41:45.860Z,40.50
2023-04-13T19:44:16.233Z,45.60
2023-04-13T19:46:44.819Z,33.70
2023-04-13T19:49:14.002Z,28.90
2023-04-13T19:51:42.137Z,36.30
2023-04-13T19:54:10.662Z,48.10
2023-04-13T19:56:38.873Z,39.60
2023-04-13T19:59:07.234Z,39.90
2023-04-13T20:01:35.782Z,46.50
2023-04-13T20:04:05.417Z,44.50
2023-04-13T20:06:36.478Z,40.20
2023-04-13T20:09:08.866Z,40.10
2023-04-13T20:11:37.212Z,39.40
2023-04-13T20:14:06.037Z,42.70
2023-04-13T20:16:35.744Z,41.50
2023-04-13T20:19:09.770Z,34.10
2023-04-13T20:24:06.626Z,36.40
2023-04-13T20:26:34.969Z,33.50
2023-04-13T20:29:04.563Z,37.20
2023-04-13T20:31:33.858Z,29.90
2023-04-13T20:34:03.913Z,24.70
2023-04-13T20:36:32.209Z,27.80
2023-04-13T20:39:00.730Z,25.10
2023-04-13T20:41:32.282Z,25.70
2023-04-13T20:44:01.149Z,23.50
2023-04-13T20:46:34.741Z,19.60
2023-04-13T20:51:34.971Z,18.00
2023-04-13T20:54:05.712Z,19.30
2023-04-13T20:56:33.934Z,22.40
2023-04-13T20:59:02.685Z,25.70
2023-04-13T21:01:31.904Z,26.20
2023-04-13T21:04:00.748Z,32.40
2023-04-13T21:06:30.174Z,20.40
2023-04-13T21:08:59.186Z,19.30
2023-04-13T21:11:28.018Z,14.00
2023-04-13T21:13:56.426Z,18.70
2023-04-13T21:16:26.050Z,17.90
2023-04-13T21:18:54.725Z,22.20
2023-04-13T21:21:24.944Z,23.10
2023-04-13T21:23:54.650Z,19.60
2023-04-13T21:26:22.968Z,24.10
2023-04-13T21:28:51.280Z,23.80
2023-04-13T21:31:19.950Z,22.00
2023-04-13T21:33:48.793Z,20.90
2023-04-13T21:38:48.439Z,25.00
2023-04-13T21:41:21.301Z,26.50
2023-04-13T21:43:49.515Z,27.00
2023-04-13T21:46:18.695Z,24.30
2023-04-13T21:48:46.926Z,22.00
2023-04-13T21:51:15.348Z,26.40
2023-04-13T21:53:43.923Z,23.70
2023-04-13T21:56:12.126Z,24.10
2023-04-13T21:58:45.140Z,23.80
2023-04-13T22:01:14.658Z,19.50
2023-04-13T22:03:46.941Z,19.30
2023-04-13T22:06:15.655Z,22.00
2023-04-13T22:08:44.118Z,21.50
2023-04-13T22:11:12.331Z,21.30
2023-04-13T22:13:44.179Z,17.80
2023-04-13T22:16:13.078Z,15.10
2023-04-13T22:18:41.984Z,12.30
2023-04-13T22:21:10.242Z,10.30
2023-04-13T22:23:38.652Z,12.40
2023-04-13T22:26:07.010Z,14.40
2023-04-13T22:28:36.000Z,17.70
2023-04-13T22:31:12.217Z,17.30
2023-04-13T22:33:40.873Z,16.80
2023-04-13T22:36:20.662Z,17.80
2023-04-13T22:38:49.947Z,20.10
2023-04-13T22:41:18.487Z,19.60
2023-04-13T22:43:46.763Z,19.50
2023-04-13T22:46:14.962Z,17.90
2023-04-13T22:48:43.217Z,16.30
2023-04-13T22:51:11.839Z,17.30
2023-04-13T22:53:40.082Z,17.20
2023-04-13T22:56:08.625Z,17.20
2023-04-13T22:58:36.763Z,16.70
2023-04-13T23:01:05.218Z,17.20
2023-04-13T23:03:33.646Z,17.10
2023-04-13T23:06:04.807Z,15.80
2023-04-13T23:08:33.020Z,14.90
2023-04-13T23:11:11.043Z,15.70
2023-04-13T23:13:40.248Z,18.20
2023-04-13T23:16:08.524Z,19.30
2023-04-13T23:18:37.033Z,20.80
2023-04-13T23:21:10.747Z,22.20
2023-04-13T23:26:07.936Z,20.70
2023-04-13T23:28:36.142Z,18.20
2023-04-13T23:31:08.578Z,18.70
2023-04-13T23:33:37.000Z,19.70
2023-04-13T23:36:06.213Z,19.90
2023-04-13T23:38:35.520Z,19.60
2023-04-13T23:41:03.797Z,19.80
2023-04-13T23:43:32.683Z,23.40
2023-04-13T23:46:01.131Z,24.30
2023-04-13T23:48:29.447Z,25.20
2023-04-13T23:50:57.819Z,30.90
2023-04-13T23:53:25.896Z,23.90
2023-04-13T23:55:54.071Z,28.00
2023-04-13T23:58:22.385Z,27.30
